Time;durP1;ratioP1;P1;durP2;ratioP2;P2;SDS_P1;SDS_P2;PMS_P1;PMS_P2;Temp;Humidity;BMP_temperature;BMP_pressure;BME280_temperature;BME280_humidity;BME280_pressure;Samples;Min_cycle;Max_cycle;Signal;HPM_P1;HPM_P2
2024/02/09 00:00:57;;;;;;;117.70;54.95;;;8.70;99.90;;;;;;4930093;28;20628;-77
2024/02/09 00:03:26;;;;;;;101.70;52.03;;;8.80;99.90;;;;;;4930735;28;20035;-77
2024/02/09 00:05:52;;;;;;;105.53;50.10;;;8.90;99.90;;;;;;4929795;28;20043;-77
2024/02/09 00:08:21;;;;;;;98.90;49.42;;;9.00;99.90;;;;;;4928731;28;20039;-76
2024/02/09 00:10:48;;;;;;;99.72;51.38;;;8.90;99.90;;;;;;4929879;28;20027;-77
2024/02/09 00:13:14;;;;;;;106.47;53.60;;;8.90;99.90;;;;;;4930986;28;20070;-77
2024/02/09 00:15:47;;;;;;;107.03;53.78;;;8.80;99.90;;;;;;4929981;28;20086;-76
2024/02/09 00:18:16;;;;;;;106.53;52.42;;;8.80;99.90;;;;;;4932008;28;20150;-76
2024/02/09 00:20:47;;;;;;;136.60;65.20;;;8.80;99.90;;;;;;4933445;28;20043;-76
2024/02/09 00:23:15;;;;;;;129.52;64.75;;;8.70;99.90;;;;;;4934487;28;20035;-76
2024/02/09 00:25:42;;;;;;;112.65;53.45;;;8.70;99.90;;;;;;4934100;28;20601;-76
2024/02/09 00:28:11;;;;;;;108.13;55.05;;;8.80;99.90;;;;;;4934821;28;20035;-76
2024/02/09 00:30:41;;;;;;;96.28;49.63;;;8.90;99.90;;;;;;4935472;28;20032;-76
2024/02/09 00:33:10;;;;;;;101.72;49.83;;;8.90;99.90;;;;;;4933044;28;20044;-76
2024/02/09 00:35:39;;;;;;;117.78;56.08;;;9.00;99.90;;;;;;4933710;28;20050;-76
2024/02/09 00:38:05;;;;;;;111.40;54.13;;;8.90;99.90;;;;;;4935194;28;20035;-76
2024/02/09 00:40:31;;;;;;;114.05;53.97;;;8.90;99.90;;;;;;4933220;28;20039;-76
2024/02/09 00:42:57;;;;;;;108.25;52.13;;;8.80;99.90;;;;;;4933428;28;20513;-76
2024/02/09 00:45:26;;;;;;;119.70;53.22;;;8.80;99.90;;;;;;4935646;28;20023;-76
2024/02/09 00:47:52;;;;;;;109.07;51.53;;;8.80;99.90;;;;;;4935359;28;21782;-76
2024/02/09 00:50:17;;;;;;;128.43;62.45;;;8.80;99.90;;;;;;4934731;28;21301;-76
2024/02/09 00:52:48;;;;;;;116.70;57.67;;;8.60;99.90;;;;;;4938011;28;20101;-76
2024/02/09 00:55:15;;;;;;;111.82;57.13;;;8.50;99.90;;;;;;4938395;28;20086;-76
2024/02/09 00:57:45;;;;;;;110.57;57.95;;;8.50;99.90;;;;;;4937461;28;20517;-76
2024/02/09 01:00:12;;;;;;;117.88;58.58;;;8.40;99.90;;;;;;4937824;28;20073;-76
2024/02/09 01:02:39;;;;;;;118.80;58.90;;;8.40;99.90;;;;;;4938163;28;20833;-76
2024/02/09 01:05:06;;;;;;;113.78;56.13;;;8.40;99.90;;;;;;4937359;28;20409;-76
2024/02/09 01:07:33;;;;;;;117.68;58.50;;;8.40;99.90;;;;;;4937128;28;20122;-76
2024/02/09 01:09:59;;;;;;;127.15;65.70;;;8.40;99.90;;;;;;4938099;29;20038;-76
2024/02/09 02:45:17;;;;;;;83.18;45.97;;;8.60;99.90;;;;;;4935738;28;20047;-77
2024/02/09 03:04:18;;;;;;;79.97;41.78;;;8.70;99.90;;;;;;4934828;28;20036;-76
2024/02/09 03:04:21;;;;;;;99.03;54.60;;;8.50;99.90;;;;;;4935113;28;20034;-76
2024/02/09 03:06:49;;;;;;;95.57;48.42;;;8.50;99.90;;;;;;4935030;28;20332;-76
2024/02/09 03:09:15;;;;;;;89.18;42.78;;;8.50;99.90;;;;;;4935844;28;20094;-78
2024/02/09 03:11:41;;;;;;;88.72;45.80;;;8.50;99.90;;;;;;4935203;28;20039;-77
2024/02/09 03:14:07;;;;;;;78.78;43.47;;;8.50;99.90;;;;;;4933986;28;21269;-76
2024/02/09 03:16:32;;;;;;;83.28;42.95;;;8.50;99.90;;;;;;4936067;28;20532;-77
2024/02/09 03:18:58;;;;;;;56.85;32.60;;;8.40;99.90;;;;;;4934224;28;20142;-77
2024/02/09 03:21:27;;;;;;;74.00;40.60;;;8.70;99.90;;;;;;4933333;28;20383;-77
2024/02/09 03:23:56;;;;;;;79.65;38.92;;;8.60;99.90;;;;;;4935614;28;20520;-78
2024/02/09 03:26:24;;;;;;;83.55;40.05;;;8.60;99.90;;;;;;4934442;28;20042;-77
2024/02/09 03:28:51;;;;;;;85.05;42.88;;;8.50;99.90;;;;;;4935511;28;20043;-77
2024/02/09 03:31:16;;;;;;;74.55;40.42;;;8.60;99.90;;;;;;4935324;28;20039;-77
2024/02/09 03:33:42;;;;;;;65.82;34.28;;;8.70;99.90;;;;;;4934885;28;20059;-77
2024/02/09 03:36:12;;;;;;;73.95;39.95;;;8.70;99.90;;;;;;4935997;28;20031;-76
2024/02/09 03:38:38;;;;;;;68.00;39.72;;;8.70;99.90;;;;;;4934841;28;20041;-76
2024/02/09 03:41:05;;;;;;;76.78;41.20;;;8.80;99.90;;;;;;4964091;28;20401;-77
2024/02/09 03:43:31;;;;;;;90.88;48.83;;;8.70;99.90;;;;;;4934873;28;20039;-76
2024/02/09 03:45:56;;;;;;;88.43;45.22;;;8.50;99.90;;;;;;4935510;28;20035;-77
2024/02/09 03:48:26;;;;;;;89.85;45.83;;;8.50;99.90;;;;;;4933943;28;20052;-77
2024/02/09 03:50:52;;;;;;;88.45;46.65;;;8.40;99.90;;;;;;4934575;28;20058;-76
2024/02/09 03:53:18;;;;;;;88.03;48.35;;;8.50;99.90;;;;;;4933604;28;20469;-76
2024/02/09 03:55:44;;;;;;;89.55;49.75;;;8.40;99.90;;;;;;4933796;28;20031;-77
2024/02/09 03:58:10;;;;;;;73.32;39.55;;;8.40;99.90;;;;;;4935266;28;20050;-77
2024/02/09 04:00:35;;;;;;;83.65;42.78;;;8.50;99.90;;;;;;4935838;28;20147;-77
2024/02/09 04:03:01;;;;;;;93.85;48.03;;;8.50;99.90;;;;;;4931637;28;20035;-78
2024/02/09 04:05:27;;;;;;;98.40;48.88;;;8.40;99.90;;;;;;4928962;28;20800;-77
2024/02/09 04:07:52;;;;;;;92.93;48.55;;;8.40;99.90;;;;;;4931276;29;20035;-77
2024/02/09 04:10:19;;;;;;;73.30;38.05;;;8.30;99.90;;;;;;4930381;28;20093;-77
2024/02/09 04:12:45;;;;;;;73.10;38.38;;;8.40;99.90;;;;;;4929882;28;20138;-77
2024/02/09 04:15:13;;;;;;;84.35;42.72;;;8.60;99.90;;;;;;4931378;28;20049;-77
2024/02/09 04:17:39;;;;;;;85.50;50.08;;;8.50;99.90;;;;;;4926517;28;20064;-77
2024/02/09 04:20:09;;;;;;;88.82;47.35;;;8.40;99.90;;;;;;4927449;28;20154;-77
2024/02/09 04:22:37;;;;;;;76.97;43.22;;;8.30;99.90;;;;;;4929525;28;20457;-78
2024/02/09 04:25:03;;;;;;;71.88;38.78;;;8.40;99.90;;;;;;4932382;28;20043;-76
2024/02/09 04:27:29;;;;;;;81.15;43.33;;;8.50;99.90;;;;;;4933005;28;20091;-76
2024/02/09 04:29:55;;;;;;;57.22;29.92;;;8.40;99.90;;;;;;4935084;28;20280;-77
2024/02/09 04:32:20;;;;;;;69.32;35.25;;;8.60;99.90;;;;;;4933244;28;20050;-77
2024/02/09 04:34:46;;;;;;;65.50;34.63;;;8.50;99.90;;;;;;4936082;28;20035;-77
2024/02/09 04:37:12;;;;;;;62.80;36.25;;;8.40;99.90;;;;;;4933148;28;20566;-78
2024/02/09 04:39:38;;;;;;;70.47;35.65;;;8.50;99.90;;;;;;4933931;28;20031;-79
2024/02/09 04:42:04;;;;;;;68.70;37.15;;;8.50;99.90;;;;;;4935964;28;20050;-77
2024/02/09 04:44:33;;;;;;;65.32;37.47;;;8.50;99.90;;;;;;4934704;29;20035;-78
2024/02/09 04:46:58;;;;;;;71.90;35.10;;;8.40;99.90;;;;;;4933701;28;20035;-78
2024/02/09 04:49:24;;;;;;;70.75;37.70;;;8.40;99.90;;;;;;4934276;28;20478;-77
2024/02/09 04:51:50;;;;;;;62.35;32.80;;;8.40;99.90;;;;;;4934895;28;20070;-78
2024/02/09 04:54:16;;;;;;;63.65;36.22;;;8.50;99.90;;;;;;4933683;28;20178;-78
2024/02/09 04:56:42;;;;;;;61.40;33.38;;;8.40;99.90;;;;;;4935155;28;20190;-77
2024/02/09 04:59:09;;;;;;;69.88;34.17;;;8.50;99.90;;;;;;4933785;28;20122;-76
2024/02/09 05:01:38;;;;;;;68.55;37.83;;;8.50;99.90;;;;;;4933568;28;20070;-76
2024/02/09 05:04:06;;;;;;;66.15;35.72;;;8.40;99.90;;;;;;4933423;28;20089;-76
2024/02/09 05:06:32;;;;;;;73.28;39.25;;;8.50;99.90;;;;;;4931627;28;20045;-76
2024/02/09 05:08:59;;;;;;;63.95;32.90;;;8.50;99.90;;;;;;4931053;28;20039;-77
2024/02/09 05:11:33;;;;;;;59.80;34.42;;;8.50;99.90;;;;;;4931746;28;20031;-76
2024/02/09 05:13:59;;;;;;;51.88;30.27;;;8.60;99.90;;;;;;4934033;28;20517;-76
2024/02/09 05:16:27;;;;;;;59.17;35.05;;;8.70;99.90;;;;;;4932785;28;20090;-76
2024/02/09 05:18:53;;;;;;;65.50;31.90;;;8.60;99.90;;;;;;4933144;28;20663;-78
2024/02/09 05:21:19;;;;;;;63.08;36.35;;;8.50;99.90;;;;;;4934199;28;20035;-78
2024/02/09 05:23:45;;;;;;;72.88;37.53;;;8.50;99.90;;;;;;4933456;28;20663;-79
2024/02/09 05:26:11;;;;;;;69.53;40.20;;;8.40;99.90;;;;;;4934909;28;20065;-78
2024/02/09 05:28:39;;;;;;;66.40;34.85;;;8.40;99.90;;;;;;4932984;28;20043;-78
2024/02/09 05:31:25;;;;;;;65.45;35.05;;;8.50;99.90;;;;;;4932918;28;20031;-78
2024/02/09 05:33:51;;;;;;;69.82;38.80;;;8.40;99.90;;;;;;4930945;28;20929;-77
2024/02/09 05:36:22;;;;;;;62.75;33.22;;;8.40;99.90;;;;;;4933217;28;20051;-79
2024/02/09 05:38:48;;;;;;;62.53;35.83;;;8.40;99.90;;;;;;4934129;28;20118;-78
2024/02/09 05:41:17;;;;;;;67.28;34.33;;;8.40;99.90;;;;;;4931780;29;20154;-77
2024/02/09 05:43:44;;;;;;;55.30;28.60;;;8.40;99.90;;;;;;4934054;28;20118;-78
2024/02/09 05:46:09;;;;;;;61.45;34.58;;;8.40;99.90;;;;;;4933421;29;20039;-77
2024/02/09 05:48:35;;;;;;;50.17;26.88;;;8.40;99.90;;;;;;4931991;28;20061;-78
2024/02/09 05:51:02;;;;;;;51.58;28.85;;;8.50;99.90;;;;;;4933640;28;20034;-78
2024/02/09 05:53:28;;;;;;;52.85;30.25;;;8.50;99.90;;;;;;4933366;28;20070;-77
2024/02/09 05:55:53;;;;;;;46.45;26.25;;;8.50;99.90;;;;;;4931325;28;20035;-78
2024/02/09 05:58:21;;;;;;;42.00;22.50;;;8.60;99.90;;;;;;4930788;28;20031;-78
2024/02/09 06:00:47;;;;;;;43.53;21.67;;;8.80;99.90;;;;;;4929512;28;20047;-78
2024/02/09 06:03:13;;;;;;;48.85;24.75;;;8.80;99.90;;;;;;4930747;28;20046;-77
2024/02/09 06:05:40;;;;;;;46.35;25.67;;;8.70;99.90;;;;;;4945651;28;20572;-77
2024/02/09 06:08:09;;;;;;;48.15;26.73;;;8.60;99.90;;;;;;4929866;28;20063;-78
2024/02/09 06:10:35;;;;;;;48.22;25.33;;;8.50;99.90;;;;;;4930231;28;20417;-77
2024/02/09 06:13:01;;;;;;;41.03;23.85;;;8.60;99.90;;;;;;4931096;28;20051;-78
2024/02/09 06:15:27;;;;;;;38.20;21.27;;;8.60;99.90;;;;;;4931103;28;20378;-77
2024/02/09 06:17:53;;;;;;;40.47;21.27;;;8.70;99.90;;;;;;4930222;28;20031;-76
2024/02/09 06:20:22;;;;;;;37.58;22.80;;;8.60;99.90;;;;;;4933439;28;20680;-79
2024/02/09 06:22:51;;;;;;;39.70;21.42;;;8.60;99.90;;;;;;4930036;28;21191;-78
2024/02/09 06:25:17;;;;;;;39.90;22.13;;;8.60;99.90;;;;;;4930201;28;20035;-82
2024/02/09 06:27:43;;;;;;;33.33;17.30;;;8.60;99.90;;;;;;4927948;28;20460;-80
2024/02/09 06:30:11;;;;;;;36.65;19.65;;;8.70;99.90;;;;;;4930650;28;20032;-82
2024/02/09 06:32:37;;;;;;;34.25;18.13;;;8.70;99.90;;;;;;4930169;28;20039;-80
2024/02/09 06:35:03;;;;;;;35.30;20.48;;;8.70;99.90;;;;;;4929803;28;20046;-79
2024/02/09 06:37:29;;;;;;;29.27;15.73;;;8.70;99.90;;;;;;4931645;28;20039;-83
2024/02/09 06:39:55;;;;;;;30.70;16.90;;;8.70;99.90;;;;;;4931049;28;20042;-81
2024/02/09 06:42:21;;;;;;;33.10;18.95;;;8.70;99.90;;;;;;4931054;28;20031;-81
2024/02/09 06:44:47;;;;;;;31.85;18.52;;;8.70;99.90;;;;;;4929790;28;20391;-79
2024/02/09 06:47:14;;;;;;;29.30;15.75;;;8.70;99.90;;;;;;4930288;28;20070;-79
2024/02/09 06:49:43;;;;;;;30.67;15.90;;;8.70;99.90;;;;;;4929869;28;20043;-80
2024/02/09 06:52:09;;;;;;;30.25;17.45;;;8.70;99.90;;;;;;4929021;28;20091;-79
2024/02/09 06:54:35;;;;;;;29.13;14.55;;;8.70;99.90;;;;;;4930114;28;20183;-80
2024/02/09 06:57:01;;;;;;;26.40;14.38;;;8.70;99.90;;;;;;4930755;28;20146;-80
2024/02/09 06:59:27;;;;;;;30.27;17.25;;;8.70;99.90;;;;;;4931074;29;20042;-79
2024/02/09 07:01:53;;;;;;;25.52;15.63;;;8.60;99.90;;;;;;4930814;28;20630;-79
2024/02/09 07:04:19;;;;;;;23.73;13.32;;;8.70;99.90;;;;;;4931812;28;20054;-81
2024/02/09 07:06:47;;;;;;;29.75;15.43;;;8.80;99.90;;;;;;4930407;28;20518;-80
2024/02/09 07:09:18;;;;;;;26.23;15.13;;;8.70;99.90;;;;;;4935638;28;21008;-78
2024/02/09 07:11:47;;;;;;;16.30;9.82;;;8.80;99.90;;;;;;4931211;28;20143;-78
2024/02/09 07:14:16;;;;;;;24.10;13.65;;;9.00;99.90;;;;;;4928615;28;20967;-76
2024/02/09 07:16:46;;;;;;;27.92;13.35;;;9.00;99.90;;;;;;4926769;28;20043;-77
2024/02/09 07:19:12;;;;;;;22.85;13.38;;;8.90;99.90;;;;;;4925564;28;20038;-77
2024/02/09 07:21:39;;;;;;;16.25;10.55;;;8.90;99.90;;;;;;4930053;29;20081;-77
2024/02/09 07:24:05;;;;;;;15.77;8.98;;;9.00;99.90;;;;;;4929066;28;20118;-77
2024/02/09 07:26:31;;;;;;;17.30;9.65;;;9.10;99.90;;;;;;4927948;29;20046;-76
2024/02/09 07:28:57;;;;;;;14.13;7.30;;;9.00;99.90;;;;;;4929058;28;20537;-78
2024/02/09 07:31:24;;;;;;;10.90;5.43;;;9.30;99.90;;;;;;4929058;28;20049;-76
2024/02/09 07:33:50;;;;;;;18.90;10.85;;;9.40;99.90;;;;;;4927979;28;20055;-76
2024/02/09 07:36:16;;;;;;;19.58;12.70;;;9.10;99.90;;;;;;4929103;28;20131;-75
2024/02/09 07:38:43;;;;;;;15.80;8.85;;;9.00;99.90;;;;;;4927742;28;20038;-75
2024/02/09 07:41:12;;;;;;;14.45;8.23;;;9.00;99.90;;;;;;4928242;28;20482;-76
2024/02/09 07:43:38;;;;;;;16.08;9.85;;;9.00;99.90;;;;;;4927510;28;20129;-76
2024/02/09 07:46:04;;;;;;;11.90;6.40;;;9.00;99.90;;;;;;4927247;28;21082;-77
2024/02/09 07:48:30;;;;;;;11.73;6.68;;;9.10;99.90;;;;;;4926901;28;20806;-76
2024/02/09 07:50:57;;;;;;;8.18;4.15;;;9.20;99.90;;;;;;4929485;28;20043;-77
2024/02/09 07:53:23;;;;;;;7.70;4.55;;;9.20;99.90;;;;;;4928536;28;20987;-75
2024/02/09 07:55:49;;;;;;;9.32;4.70;;;9.30;99.90;;;;;;4927873;28;20040;-76
2024/02/09 07:58:16;;;;;;;9.05;4.22;;;9.30;99.90;;;;;;4928957;28;20043;-75
2024/02/09 08:00:43;;;;;;;11.23;5.05;;;9.30;99.90;;;;;;4928881;28;21752;-75
2024/02/09 08:03:10;;;;;;;8.93;3.70;;;9.30;99.90;;;;;;4932914;28;20031;-75
2024/02/09 08:05:37;;;;;;;6.80;3.67;;;9.30;99.90;;;;;;4931723;28;20039;-75
2024/02/09 08:08:03;;;;;;;11.80;5.90;;;9.40;99.90;;;;;;4930421;28;20039;-76
2024/02/09 08:10:35;;;;;;;10.48;5.90;;;9.30;99.90;;;;;;4931024;28;20146;-78
2024/02/09 08:13:04;;;;;;;9.93;5.82;;;9.20;99.90;;;;;;4930026;28;20045;-75
2024/02/09 08:15:30;;;;;;;10.45;4.53;;;9.20;99.90;;;;;;4931900;28;20105;-79
2024/02/09 08:17:56;;;;;;;10.13;5.43;;;9.20;99.90;;;;;;4924086;28;20043;-77
2024/02/09 08:20:23;;;;;;;12.93;8.20;;;9.20;99.90;;;;;;4930131;28;20039;-76
2024/02/09 08:22:53;;;;;;;14.45;8.65;;;9.20;99.90;;;;;;4930532;28;20293;-76
2024/02/09 08:25:19;;;;;;;12.57;8.27;;;9.10;99.90;;;;;;4932789;28;20031;-77
2024/02/09 08:27:45;;;;;;;15.45;8.38;;;9.10;99.90;;;;;;4931046;28;20545;-77
2024/02/09 08:30:12;;;;;;;15.70;8.88;;;9.10;99.90;;;;;;4929726;28;20401;-77
2024/02/09 08:32:40;;;;;;;10.98;5.88;;;9.10;99.90;;;;;;4931588;28;20643;-77
2024/02/09 08:35:06;;;;;;;11.38;6.25;;;9.10;99.90;;;;;;4930541;28;20046;-77
2024/02/09 08:37:32;;;;;;;10.30;5.97;;;9.10;99.90;;;;;;4930742;28;20039;-77
2024/02/09 08:39:58;;;;;;;12.57;6.88;;;9.10;99.90;;;;;;4932724;28;20042;-77
2024/02/09 08:42:24;;;;;;;10.93;5.72;;;9.10;99.90;;;;;;4930089;28;20090;-76
2024/02/09 08:44:51;;;;;;;10.35;5.55;;;9.10;99.90;;;;;;4929604;28;20031;-77
2024/02/09 08:47:17;;;;;;;8.98;4.70;;;9.20;99.90;;;;;;4930757;28;20039;-79
2024/02/09 08:49:43;;;;;;;7.97;4.80;;;9.20;99.90;;;;;;4930202;28;20536;-76
2024/02/09 08:52:10;;;;;;;10.10;4.32;;;9.20;99.90;;;;;;4928855;28;20047;-75
2024/02/09 08:54:35;;;;;;;9.00;4.30;;;9.30;99.90;;;;;;4930002;28;20043;-75
2024/02/09 08:57:01;;;;;;;12.43;6.20;;;9.40;99.90;;;;;;4928135;28;20057;-75
2024/02/09 08:59:27;;;;;;;6.93;4.13;;;9.70;99.90;;;;;;4930062;28;20034;-75
2024/02/09 09:04:28;;;;;;;6.03;3.70;;;9.60;99.90;;;;;;4926073;29;20074;-78
2024/02/09 09:06:54;;;;;;;9.32;5.22;;;9.50;99.90;;;;;;4930567;28;20030;-80
2024/02/09 09:09:21;;;;;;;8.63;4.68;;;9.40;99.90;;;;;;4931728;28;20061;-80
2024/02/09 09:11:46;;;;;;;6.13;3.65;;;9.40;99.90;;;;;;4930837;28;20035;-79
2024/02/09 09:14:12;;;;;;;8.50;5.07;;;9.40;99.90;;;;;;4930311;28;20090;-78
2024/02/09 09:16:38;;;;;;;6.75;3.78;;;9.40;99.90;;;;;;4930995;28;20105;-79
2024/02/09 09:19:09;;;;;;;7.72;3.75;;;9.40;99.90;;;;;;4930998;28;20048;-80
2024/02/09 09:21:38;;;;;;;6.18;3.05;;;9.40;99.90;;;;;;4930922;28;20042;-79
2024/02/09 09:24:15;;;;;;;11.45;6.10;;;9.60;99.90;;;;;;4934216;29;21315;-79
2024/02/09 09:26:42;;;;;;;9.82;5.22;;;9.50;99.90;;;;;;4926786;28;20099;-78
2024/02/09 09:29:08;;;;;;;8.68;4.72;;;9.40;99.90;;;;;;4929620;28;20042;-79
2024/02/09 09:31:51;;;;;;;8.30;5.05;;;9.40;99.90;;;;;;4933650;28;20027;-79
2024/02/09 09:34:30;;;;;;;5.97;3.17;;;9.40;99.90;;;;;;4933111;28;20122;-79
2024/02/09 09:36:56;;;;;;;7.30;3.10;;;9.50;99.90;;;;;;4931716;28;20027;-80
2024/02/09 09:39:22;;;;;;;4.60;2.60;;;9.70;99.90;;;;;;4930529;29;21332;-79
2024/02/09 09:41:50;;;;;;;6.13;2.50;;;9.80;99.90;;;;;;4931554;28;20105;-79
2024/02/09 09:44:16;;;;;;;8.48;3.50;;;9.80;99.90;;;;;;4931725;28;20115;-80
2024/02/09 09:46:42;;;;;;;9.05;4.88;;;9.70;99.90;;;;;;4928459;29;20043;-79
2024/02/09 09:49:09;;;;;;;10.18;5.15;;;9.50;99.90;;;;;;4929569;28;20089;-79
2024/02/09 09:51:36;;;;;;;8.23;4.22;;;9.50;99.90;;;;;;4930705;29;20433;-78
2024/02/09 09:54:06;;;;;;;10.02;4.38;;;9.50;99.90;;;;;;4932318;28;20551;-76
2024/02/09 09:56:33;;;;;;;6.18;3.70;;;9.50;99.90;;;;;;4932259;28;20524;-77
2024/02/09 09:58:59;;;;;;;8.75;4.60;;;9.50;99.90;;;;;;4933363;29;20038;-80
2024/02/09 10:01:25;;;;;;;9.40;3.97;;;9.50;99.90;;;;;;4932313;29;20122;-77
2024/02/09 10:03:55;;;;;;;8.65;4.35;;;9.50;99.90;;;;;;4930945;28;20081;-80
2024/02/09 10:06:23;;;;;;;6.10;3.22;;;9.50;99.90;;;;;;4929804;29;20067;-80
2024/02/09 10:08:49;;;;;;;8.05;4.18;;;9.60;99.90;;;;;;4933367;29;20047;-79
2024/02/09 10:11:18;;;;;;;7.57;4.25;;;9.70;99.90;;;;;;4934813;28;20047;-79
2024/02/09 10:13:44;;;;;;;6.55;4.20;;;9.60;99.90;;;;;;4933611;28;20047;-78
2024/02/09 10:16:09;;;;;;;8.55;4.10;;;9.60;99.90;;;;;;4932658;28;20050;-79
2024/02/09 10:18:37;;;;;;;6.78;3.88;;;9.50;99.90;;;;;;4929055;28;20711;-78
2024/02/09 10:21:06;;;;;;;6.68;2.45;;;9.70;99.90;;;;;;4932880;29;20039;-79
2024/02/09 10:23:34;;;;;;;5.28;2.67;;;9.60;99.90;;;;;;4931096;28;20386;-78
2024/02/09 10:26:06;;;;;;;4.65;2.22;;;9.70;99.90;;;;;;4934008;28;20028;-79
2024/02/09 10:28:35;;;;;;;7.35;2.10;;;9.70;99.90;;;;;;4932668;29;20119;-78
2024/02/09 10:31:03;;;;;;;5.50;1.90;;;9.70;99.90;;;;;;4932339;28;21411;-78
2024/02/09 10:33:30;;;;;;;4.05;2.05;;;9.70;99.90;;;;;;4933016;28;20133;-78
2024/02/09 10:36:02;;;;;;;5.40;2.45;;;9.70;99.90;;;;;;4930113;28;20027;-78
2024/02/09 10:38:48;;;;;;;6.22;2.03;;;9.70;99.90;;;;;;4923690;28;20038;-78
2024/02/09 10:41:17;;;;;;;4.22;2.05;;;9.70;99.90;;;;;;4930361;28;21140;-79
2024/02/09 10:43:51;;;;;;;3.70;2.13;;;9.70;99.90;;;;;;4930901;28;20031;-78
2024/02/09 10:46:23;;;;;;;4.33;1.80;;;9.70;99.90;;;;;;4932806;28;20058;-78
2024/02/09 10:48:55;;;;;;;4.65;2.33;;;9.80;99.90;;;;;;4931341;28;20275;-80
2024/02/09 10:51:27;;;;;;;5.18;1.88;;;9.80;99.90;;;;;;4929520;29;20066;-79
2024/02/09 10:54:17;;;;;;;4.63;2.17;;;9.90;99.90;;;;;;4930551;28;20071;-77
2024/02/09 10:56:50;;;;;;;4.68;2.08;;;9.80;99.90;;;;;;4931484;28;20153;-79
2024/02/09 10:59:17;;;;;;;4.30;2.13;;;9.80;99.90;;;;;;4931999;29;20093;-80
2024/02/09 11:01:44;;;;;;;3.90;1.77;;;9.80;99.90;;;;;;4930504;28;20089;-79
2024/02/09 11:04:10;;;;;;;4.32;2.38;;;9.80;99.90;;;;;;4930945;28;20181;-79
2024/02/09 11:06:37;;;;;;;3.47;1.92;;;9.80;99.90;;;;;;4930016;28;21803;-79
2024/02/09 11:09:04;;;;;;;3.53;1.77;;;9.90;99.90;;;;;;4930956;28;20023;-80
2024/02/09 11:11:34;;;;;;;3.85;1.73;;;9.90;99.90;;;;;;4932860;28;20058;-80
2024/02/09 11:14:11;;;;;;;3.58;1.58;;;9.80;99.90;;;;;;4931763;28;20066;-80
2024/02/09 11:16:45;;;;;;;3.67;1.60;;;9.90;99.90;;;;;;4930898;29;20031;-77
2024/02/09 11:19:16;;;;;;;3.88;1.88;;;9.80;99.90;;;;;;4930143;28;20031;-77
2024/02/09 11:21:53;;;;;;;5.45;2.33;;;9.90;99.90;;;;;;4930793;28;20046;-81
2024/02/09 11:24:21;;;;;;;5.85;3.22;;;9.80;99.90;;;;;;4932254;28;20035;-78
2024/02/09 11:26:48;;;;;;;4.80;2.53;;;9.80;99.90;;;;;;4931139;28;20477;-78
2024/02/09 11:29:16;;;;;;;3.17;1.50;;;9.90;99.90;;;;;;4931280;29;20039;-78
2024/02/09 11:31:46;;;;;;;3.30;1.65;;;9.80;99.90;;;;;;4932335;28;20027;-79
2024/02/09 11:34:29;;;;;;;2.60;1.50;;;9.90;99.90;;;;;;4931612;28;20660;-78
2024/02/09 11:37:02;;;;;;;4.38;2.13;;;9.80;99.90;;;;;;4928997;28;20039;-78
2024/02/09 11:39:32;;;;;;;3.28;1.50;;;9.80;99.90;;;;;;4930253;28;20034;-79
2024/02/09 11:41:58;;;;;;;3.80;1.70;;;9.80;99.90;;;;;;4929011;29;20341;-78
2024/02/09 11:44:24;;;;;;;3.03;1.38;;;9.90;99.90;;;;;;4931279;28;20042;-80
2024/02/09 11:46:53;;;;;;;2.50;1.38;;;9.90;99.90;;;;;;4928674;29;20034;-79
2024/02/09 11:49:46;;;;;;;3.45;1.80;;;9.90;99.90;;;;;;4927676;29;20453;-78
2024/02/09 11:52:18;;;;;;;4.45;1.50;;;9.90;99.90;;;;;;4928841;28;20070;-78
2024/02/09 11:54:59;;;;;;;2.65;1.20;;;9.90;99.90;;;;;;4930790;28;20050;-78
2024/02/09 11:57:34;;;;;;;3.13;1.23;;;9.90;99.90;;;;;;4930655;29;20039;-79
2024/02/09 12:00:07;;;;;;;3.17;1.50;;;9.90;99.90;;;;;;4931276;28;20031;-78
2024/02/09 12:02:33;;;;;;;2.45;1.40;;;9.90;99.90;;;;;;4929533;29;20071;-80
2024/02/09 12:04:59;;;;;;;12.05;7.50;;;9.90;99.90;;;;;;4929698;29;20130;-80
2024/02/09 12:07:28;;;;;;;9.13;4.90;;;10.00;99.90;;;;;;4928580;29;20055;-80
2024/02/09 12:09:54;;;;;;;6.43;2.70;;;9.90;99.90;;;;;;4928122;29;21540;-80
2024/02/09 12:12:23;;;;;;;2.90;1.42;;;9.90;99.90;;;;;;4924123;28;20262;-80
2024/02/09 12:14:49;;;;;;;3.78;1.42;;;9.90;99.90;;;;;;4930646;29;20449;-80
2024/02/09 12:17:15;;;;;;;2.17;1.02;;;9.90;99.90;;;;;;4930029;28;20496;-79
2024/02/09 12:19:42;;;;;;;2.22;1.20;;;9.90;99.90;;;;;;4929395;29;20062;-80
2024/02/09 12:22:08;;;;;;;4.03;1.60;;;10.00;99.90;;;;;;4930557;29;20035;-80
2024/02/09 12:24:37;;;;;;;4.30;1.63;;;10.00;99.90;;;;;;4930517;28;20043;-81
2024/02/09 12:27:16;;;;;;;4.15;1.30;;;10.00;99.90;;;;;;4927453;28;20039;-79
2024/02/09 12:29:49;;;;;;;3.80;1.73;;;10.10;99.90;;;;;;4927967;28;20043;-80
2024/02/09 12:32:18;;;;;;;14.75;7.40;;;10.20;99.90;;;;;;4929806;29;20711;-80
2024/02/09 12:34:50;;;;;;;7.18;4.22;;;10.20;99.90;;;;;;4927662;28;20039;-80
2024/02/09 12:37:20;;;;;;;8.00;4.25;;;10.10;99.90;;;;;;4925200;29;20393;-79
2024/02/09 12:39:49;;;;;;;4.47;2.70;;;10.10;99.90;;;;;;4929254;28;20093;-80
2024/02/09 12:42:22;;;;;;;4.95;2.95;;;10.00;99.90;;;;;;4927723;29;20079;-81
2024/02/09 12:44:51;;;;;;;5.93;2.42;;;9.90;99.90;;;;;;4927428;28;20070;-79
2024/02/09 12:47:18;;;;;;;4.93;1.60;;;9.90;99.90;;;;;;4930243;29;20027;-79
2024/02/09 12:49:54;;;;;;;3.58;1.15;;;10.10;99.90;;;;;;4930005;28;20062;-81
2024/02/09 12:52:26;;;;;;;4.30;1.23;;;10.30;99.90;;;;;;4932041;29;20055;-79
2024/02/09 12:54:59;;;;;;;3.00;1.05;;;10.30;99.90;;;;;;4934485;28;20131;-79
2024/02/09 12:57:55;;;;;;;3.70;1.27;;;10.30;99.90;;;;;;4931690;28;20050;-79
2024/02/09 13:00:23;;;;;;;6.30;2.58;;;10.20;99.90;;;;;;4895949;29;20135;-80
2024/02/09 13:02:50;;;;;;;3.08;1.35;;;10.10;99.90;;;;;;4931200;28;20055;-81
2024/02/09 13:05:30;;;;;;;3.38;1.13;;;10.00;99.90;;;;;;4930843;29;20784;-80
2024/02/09 13:07:59;;;;;;;3.42;1.20;;;9.90;99.90;;;;;;4930190;29;20086;-80
2024/02/09 13:10:25;;;;;;;4.22;1.40;;;10.00;99.90;;;;;;4930902;29;20050;-81
2024/02/09 13:12:52;;;;;;;1.90;1.00;;;10.10;99.90;;;;;;4930989;28;20047;-82
2024/02/09 13:15:19;;;;;;;7.55;3.42;;;10.10;99.90;;;;;;4930660;29;20035;-80
2024/02/09 13:17:48;;;;;;;5.07;1.80;;;10.30;99.90;;;;;;4931506;28;20046;-81
2024/02/09 13:20:18;;;;;;;3.22;1.23;;;10.30;99.90;;;;;;4929887;28;20398;-81
2024/02/09 13:22:44;;;;;;;5.80;1.52;;;10.20;99.90;;;;;;4928368;28;20042;-82
2024/02/09 13:25:13;;;;;;;2.55;1.00;;;10.10;99.90;;;;;;4931191;29;20126;-81
2024/02/09 13:27:45;;;;;;;3.17;1.00;;;10.20;99.90;;;;;;4932445;29;20631;-82
2024/02/09 13:30:12;;;;;;;4.78;1.13;;;10.20;99.90;;;;;;4930730;28;20511;-81
2024/02/09 13:32:37;;;;;;;2.90;0.80;;;10.20;99.90;;;;;;4930491;29;20054;-82
2024/02/09 13:35:11;;;;;;;5.88;3.05;;;10.20;99.90;;;;;;4930169;28;20489;-82
2024/02/09 13:37:44;;;;;;;4.28;1.73;;;10.30;99.90;;;;;;4930584;28;20086;-79
2024/02/09 13:40:20;;;;;;;2.97;1.40;;;10.20;99.90;;;;;;4930545;29;20032;-80
2024/02/09 13:42:50;;;;;;;2.50;1.20;;;10.20;99.90;;;;;;4929725;29;20039;-80
2024/02/09 13:45:18;;;;;;;5.85;1.77;;;10.10;99.90;;;;;;4928439;28;20049;-80
2024/02/09 13:47:44;;;;;;;2.80;1.35;;;10.10;99.90;;;;;;4929118;29;20035;-80
2024/02/09 13:50:15;;;;;;;4.55;2.20;;;10.10;99.90;;;;;;4931366;28;20477;-80
2024/02/09 13:52:45;;;;;;;4.85;1.65;;;10.10;99.90;;;;;;4929333;28;20114;-79
2024/02/09 13:55:15;;;;;;;3.78;1.80;;;10.00;99.90;;;;;;4929595;28;20122;-78
2024/02/09 13:57:45;;;;;;;3.80;1.50;;;10.00;99.90;;;;;;4928752;28;20045;-80
2024/02/09 14:00:12;;;;;;;4.25;1.20;;;10.10;99.90;;;;;;4928927;29;20646;-80
2024/02/09 14:02:39;;;;;;;2.03;1.15;;;10.30;99.90;;;;;;4929748;29;20118;-80
2024/02/09 14:05:05;;;;;;;3.72;1.70;;;10.30;99.90;;;;;;4923030;29;20039;-80
2024/02/09 14:07:31;;;;;;;6.05;1.75;;;10.30;99.90;;;;;;4928475;29;20094;-80
2024/02/09 14:09:58;;;;;;;2.35;1.10;;;10.30;99.90;;;;;;4929339;29;20039;-78
2024/02/09 14:12:24;;;;;;;2.55;1.20;;;10.20;99.90;;;;;;4929207;29;20949;-81
2024/02/09 14:14:52;;;;;;;3.30;1.35;;;10.10;99.90;;;;;;4930453;29;20392;-77
2024/02/09 14:17:19;;;;;;;2.97;1.15;;;10.10;99.90;;;;;;4929840;28;20495;-80
2024/02/09 14:19:45;;;;;;;3.75;1.98;;;10.10;99.90;;;;;;4926993;29;20042;-80
2024/02/09 14:22:12;;;;;;;2.08;1.00;;;10.10;99.90;;;;;;4926362;29;20031;-80
2024/02/09 14:24:38;;;;;;;3.10;1.00;;;10.10;99.90;;;;;;4930739;28;20883;-80
2024/02/09 14:27:05;;;;;;;3.00;1.67;;;10.10;99.90;;;;;;4929265;28;20509;-79
2024/02/09 14:29:31;;;;;;;4.45;1.45;;;10.10;99.90;;;;;;4929536;28;20043;-79
2024/02/09 14:31:57;;;;;;;4.38;1.60;;;10.10;99.90;;;;;;4930227;28;20031;-79
2024/02/09 14:34:23;;;;;;;6.65;2.17;;;10.00;99.90;;;;;;4929547;28;20794;-78
2024/02/09 14:36:49;;;;;;;5.03;1.88;;;10.00;99.90;;;;;;4929072;29;20362;-78
2024/02/09 14:39:14;;;;;;;4.38;2.00;;;10.10;99.90;;;;;;4928449;29;20105;-79